Fort Collins, Colorado
Current Conditions -  °F | °C
As of 5:35 PM on Friday 24 Oct 2014 (Local Time) from KFNL Reporting Station
Clear Clear  
Wind Chill: 75°   Ceiling: Unl
Heat Index: 75°   Visibility: 10mi
Dew Point: 30°   Wind: 9mph
Humidity: 19%   Direction: 110°ESE
Pressure: 30.12"   Gusts: NA
Location:  40.58°N, 105.07°W
Report Text: KFNL 242335Z AUTO 11008KT 10SM CLR 24/M01 A3012 RMK AO1
Loading
Personal Weather Stations






























Interactive Weather Map
Tropical Storm Tracking
New forecast layout! Learn more

10-Day Weather Forecast

Advertisements
Track Severe Weather on mobile